Latest Weather Observations for Point Perpendicular

IDN60801

Issued at 4:03 pm EST Wednesday 5 August 2015 (issued every 30 minutes, with the page automatically refreshed every 10 minutes)

About weather observations | Map of weather stations | Latest weather observations for NSW | Other Formats
Station Details ID: 068151 Name: POINT PERPENDICULAR AWS Lat: -35.09 Lon: 150.80 Height: 85.0 m
Data from the previous 72 hours. | See also: Recent months at Point Perpendicular
Date/Time
EST
Temp
°C
App
Temp
°C
Dew
Point
Rel
Hum
%
Delta-T
°C
Wind Press
QNH
hPa
Press
MSL
hPa
Rain
since 9 am
mm
Dir
 
Spd
km/h
Gust
km/h
Spd
kts
Gust
kts
05/04:00pm 13.3 7.4 3.9 53 4.3 WNW 24 33 13 18 1008.3 1008.3 0.0
05/03:30pm 12.9 7.4 3.8 54 4.1 WNW 22 32 12 17 1008.5 1008.5 0.0
05/03:00pm 13.0 7.4 3.7 53 4.2 WNW 22 33 12 18 1008.5 1008.5 0.0
05/02:30pm 12.9 7.0 3.8 54 4.1 W 24 35 13 19 1008.6 1008.6 0.0
05/02:00pm 12.3 6.0 4.0 57 3.8 W 26 43 14 23 1008.7 1008.7 0.0
05/01:30pm 11.9 5.2 3.4 56 3.8 W 28 41 15 22 1008.4 1008.4 0.0
05/01:09pm 12.0 5.1 2.7 53 4.1 W 28 46 15 25 1008.6 1008.6 0.0
05/01:00pm 12.3 5.6 3.8 56 3.8 W 28 44 15 24 1009.0 1009.0 0.0
05/12:30pm 12.5 6.2 3.5 54 4.0 W 26 41 14 22 1009.3 1009.3 0.0
05/12:00pm 12.1 5.2 2.6 52 4.2 W 28 48 15 26 1009.4 1009.4 0.0
05/11:57am 12.2 5.4 2.9 53 4.1 W 28 48 15 26 1009.4 1009.4 0.0
05/11:30am 12.4 6.1 3.6 55 3.9 W 26 41 14 22 1009.9 1009.9 0.0
05/11:00am 11.9 4.3 3.7 57 3.7 WNW 33 48 18 26 1010.3 1010.3 0.0
05/10:52am 11.8 4.7 3.6 57 3.7 WNW 30 48 16 26 1010.4 1010.4 0.0
05/10:30am 11.1 4.7 3.4 59 3.4 WNW 26 35 14 19 1010.8 1010.8 0.0
05/10:00am 10.3 3.5 2.9 60 3.2 WNW 28 44 15 24 1011.0 1011.0 0.0
05/09:30am 9.2 2.2 2.1 61 3.0 WNW 28 43 15 23 1011.3 1011.2 0.0
05/09:00am 9.0 2.0 1.9 61 3.0 WNW 28 41 15 22 1011.7 1011.6 0.0
05/08:30am 8.8 2.5 1.7 61 2.9 WNW 24 35 13 19 1011.8 1011.7 0.0
05/08:00am 8.9 2.6 1.8 61 3.0 WNW 24 35 13 19 1012.1 1012.0 0.0
05/07:30am 8.2 2.2 1.1 61 2.9 WNW 22 33 12 18 1012.3 1012.2 0.0
05/07:00am 8.1 2.0 0.3 58 3.1 WNW 22 33 12 18 1012.0 1011.9 0.0
05/06:30am 8.2 2.6 0.9 60 3.0 WNW 20 30 11 16 1012.1 1012.0 0.0
05/06:00am 8.0 1.2 0.5 59 3.0 W 26 41 14 22 1012.6 1012.5 0.0
05/05:30am 7.8 1.3 0.3 59 3.0 WNW 24 35 13 19 1012.4 1012.3 0.0
05/05:00am 7.7 1.9 0.0 58 3.0 WNW 20 32 11 17 1012.4 1012.3 0.0
05/04:30am 7.6 1.0 -0.1 58 3.0 WNW 24 35 13 19 1012.7 1012.6 0.0
05/04:00am 7.7 0.8 0.2 59 3.0 W 26 39 14 21 1012.6 1012.5 0.0
05/03:30am 7.0 1.3 -0.4 59 2.9 W 19 30 10 16 1012.9 1012.8 0.0
05/03:00am 7.2 0.6 -0.5 58 3.0 W 24 33 13 18 1013.3 1013.2 0.0
05/02:30am 7.0 -0.1 -1.2 56 3.1 WNW 26 41 14 22 1013.6 1013.6 0.0
05/02:00am 7.1 0.8 -0.8 57 3.0 W 22 33 12 18 1014.0 1014.0 0.0
05/01:30am 7.1 0.8 -1.1 56 3.1 W 22 43 12 23 1014.1 1014.1 0.0
05/01:00am 7.2 0.2 -0.7 57 3.0 W 26 43 14 23 1014.5 1014.5 0.0
05/12:30am 7.4 0.9 0.6 62 2.7 W 24 41 13 22 1015.0 1015.0 0.0
05/12:07am 7.5 0.3 0.5 61 2.8 WNW 28 46 15 25 1015.0 1015.0 0.0
05/12:00am 7.4 0.1 -0.1 59 2.9 W 28 43 15 23 1014.9 1014.9 0.0
 
Date/Time
EST
Temp
°C
App
Temp
°C
Dew
Point
Rel
Hum
%
Delta-T
°C
Wind Press
QNH
hPa
Press
MSL
hPa
Rain
since 9 am
mm
Dir
 
Spd
km/h
Gust
km/h
Spd
kts
Gust
kts
04/11:30pm 7.8 1.3 0.5 60 2.9 WNW 24 39 13 21 1015.3 1015.3 0.0
04/11:00pm 7.7 1.4 -0.8 55 3.3 WNW 22 35 12 19 1015.7 1015.7 0.0
04/10:30pm 7.8 1.9 -0.9 54 3.4 WNW 20 32 11 17 1016.2 1016.2 0.0
04/10:00pm 7.9 1.2 -0.8 54 3.4 WNW 24 39 13 21 1016.4 1016.4 0.0
04/09:30pm 7.9 1.6 -1.1 53 3.5 WNW 22 33 12 18 1016.4 1016.4 0.0
04/09:00pm 7.9 2.3 -0.1 57 3.1 NW 19 33 10 18 1017.1 1017.1 0.0
04/08:30pm 8.1 2.3 -0.4 55 3.3 WNW 20 33 11 18 1017.6 1017.6 0.0
04/08:00pm 8.4 1.8 -0.4 54 3.5 NW 24 35 13 19 1017.5 1017.5 0.0
04/07:30pm 8.9 3.1 -0.4 52 3.7 WNW 20 35 11 19 1017.7 1017.7 0.0
04/07:00pm 9.6 5.2 0.5 53 3.7 WNW 13 24 7 13 1017.9 1017.9 0.0
04/06:30pm 9.9 5.5 0.3 51 3.9 WNW 13 22 7 12 1017.7 1017.7 0.0
04/06:00pm 9.5 5.8 2.1 60 3.1 NNW 11 15 6 8 1017.8 1017.8 0.0
04/05:30pm 9.3 5.7 2.9 64 2.7 N 11 15 6 8 1017.6 1017.6 0.0
04/05:00pm 9.5 5.4 2.4 61 3.0 N 13 15 7 8 1017.4 1017.4 0.0
04/04:30pm 10.4 6.2 1.8 55 3.6 NNE 13 20 7 11 1017.5 1017.5 0.0
04/04:00pm 11.2 6.6 1.5 51 4.1 NNE 15 22 8 12 1017.7 1017.7 0.0
04/03:30pm 11.4 6.4 1.6 51 4.2 NNE 17 26 9 14 1018.0 1018.0 0.0
04/03:00pm 11.5 6.5 1.5 50 4.2 NE 17 24 9 13 1018.2 1018.2 0.0
04/02:30pm 12.0 8.2 1.9 50 4.3 NE 11 20 6 11 1018.4 1018.4 0.0
04/02:00pm 11.7 8.2 1.1 48 4.4 ENE 9 13 5 7 1019.0 1019.0 0.0
04/01:30pm 11.4 8.2 0.8 48 4.4 ESE 7 11 4 6 1019.4 1019.4 0.0
04/01:00pm 11.1 7.4 -0.1 46 4.5 N 9 15 5 8 1020.0 1020.0 0.0
04/12:30pm 10.9 7.5 -0.9 44 4.7 SW 7 13 4 7 1020.8 1020.8 0.0
04/12:00pm 10.7 6.8 -1.7 42 4.8 SSW 9 13 5 7 1021.4 1021.4 0.0
04/11:30am 10.4 6.7 0.2 49 4.2 SSW 9 13 5 7 1021.9 1021.9 0.0
04/11:00am 9.9 6.1 -0.6 48 4.2 WSW 9 15 5 8 1022.6 1022.6 0.0
04/10:30am 9.6 5.9 0.2 52 3.8 WSW 9 15 5 8 1022.9 1022.9 0.0
04/10:00am 9.6 5.6 0.5 53 3.7 W 11 15 6 8 1022.9 1022.9 0.0
04/09:30am 9.2 5.8 2.1 61 3.0 W 9 13 5 7 1023.0 1023.0 0.0
04/09:00am 8.5 5.1 1.9 63 2.7 W 9 13 5 7 1022.7 1022.7 3.2
04/08:30am 7.9 4.7 3.2 72 2.0 W 9 15 5 8 1022.7 1022.7 3.2
04/08:00am 7.2 4.0 3.3 76 1.6 WNW 9 13 5 7 1022.6 1022.6 3.2
04/07:30am 6.0 2.3 2.3 77 1.5 WNW 11 13 6 7 1022.6 1022.6 3.2
04/07:00am 7.6 4.7 2.7 71 2.0 WNW 7 11 4 6 1022.3 1022.3 3.2
04/06:30am 7.8 4.5 2.5 69 2.2 WSW 9 13 5 7 1022.0 1022.0 3.2
04/06:00am 7.6 4.3 2.5 70 2.1 WSW 9 13 5 7 1021.7 1021.7 3.2
04/05:30am 7.7 4.5 3.2 73 1.9 W 9 11 5 6 1021.6 1021.6 3.2
04/05:00am 7.6 4.3 2.7 71 2.0 WNW 9 13 5 7 1021.7 1021.7 3.2
04/04:30am 7.9 4.8 3.4 73 1.9 W 9 13 5 7 1021.5 1021.5 3.2
04/04:00am 8.7 4.6 2.1 63 2.7 WSW 13 24 7 13 1021.3 1021.3 3.2
04/03:30am 9.5 4.7 0.1 52 3.8 SSW 15 24 8 13 1020.8 1020.8 3.2
04/03:00am 9.8 5.3 1.9 58 3.3 SW 15 22 8 12 1020.8 1020.8 3.2
04/02:30am 9.7 5.2 2.1 59 3.2 SW 15 24 8 13 1021.0 1021.0 3.2
04/02:00am 9.8 6.0 1.7 57 3.4 SW 11 15 6 8 1021.3 1021.3 3.2
04/01:30am 9.5 6.0 3.5 66 2.6 SW 11 17 6 9 1021.4 1021.4 3.2
04/01:00am 9.7 6.3 3.9 67 2.5 SW 11 15 6 8 1021.5 1021.5 3.2
04/12:30am 10.0 6.1 3.3 63 2.9 SSW 13 28 7 15 1021.5 1021.5 3.2
04/12:00am 9.2 7.4 5.6 78 1.6 WNW 4 7 2 4 1021.6 1021.6 3.2
 
Date/Time
EST
Temp
°C
App
Temp
°C
Dew
Point
Rel
Hum
%
Delta-T
°C
Wind Press
QNH
hPa
Press
MSL
hPa
Rain
since 9 am
mm
Dir
 
Spd
km/h
Gust
km/h
Spd
kts
Gust
kts
03/11:30pm 9.0 5.9 5.4 78 1.6 W 11 20 6 11 1021.7 1021.7 3.2
03/11:00pm 9.5 7.4 6.0 79 1.6 SW 6 9 3 5 1021.0 1021.0 3.2
03/10:30pm 10.0 8.6 7.4 84 1.2 WNW 4 7 2 4 1021.2 1021.2 3.2
03/10:00pm 9.8 7.9 7.6 86 1.1 WNW 7 11 4 6 1020.9 1020.9 3.2
03/09:30pm 9.7 7.3 6.8 82 1.4 NW 9 11 5 6 1020.8 1020.8 3.2
03/09:00pm 10.8 8.5 5.8 71 2.3 SSW 7 9 4 5 1020.6 1020.6 3.2
03/08:30pm 10.5 8.1 5.3 70 2.4 S 7 11 4 6 1020.3 1020.3 3.2
03/08:00pm 10.2 8.0 6.2 76 1.9 S 7 11 4 6 1020.2 1020.2 3.0
03/07:30pm 10.3 7.6 5.7 73 2.1 SSW 9 13 5 7 1019.8 1019.8 3.0
03/07:00pm 10.2 7.5 5.4 72 2.2 SSW 9 20 5 11 1019.4 1019.4 2.6
03/06:30pm 10.4 7.4 5.8 73 2.1 S 11 20 6 11 1018.7 1018.7 2.0
03/06:00pm 10.3 5.7 6.6 78 1.7 S 20 35 11 19 1017.4 1017.4 1.6
03/05:30pm 10.3 5.8 7.0 80 1.6 S 20 32 11 17 1016.9 1016.9 0.8
03/05:00pm 11.2 6.3 6.7 74 2.1 SE 22 35 12 19 1015.4 1015.4 0.0
03/04:47pm 12.5 6.8 6.5 67 2.9 SW 26 57 14 31 1015.1 1015.1 0.0
03/04:45pm 12.7 6.9 6.3 65 3.0 WSW 26 57 14 31 1015.5 1015.5 0.0
03/04:30pm 14.0 9.0 3.5 49 4.8 W 19 30 10 16 1014.6 1014.6 0.0
03/04:00pm 14.4 8.7 2.9 46 5.2 WNW 22 32 12 17 1013.8 1013.8 0.0
03/03:30pm 14.3 7.6 3.7 49 4.8 W 28 39 15 21 1013.4 1013.3 0.0
03/03:00pm 15.0 9.0 3.2 45 5.4 WNW 24 35 13 19 1013.3 1013.2 0.0
03/02:36pm 14.7 7.8 2.6 44 5.4 W 28 46 15 25 1012.8 1012.7 0.0
03/02:30pm 14.7 7.5 2.9 45 5.3 WNW 30 46 16 25 1012.7 1012.6 0.0
03/02:00pm 14.7 8.0 3.8 48 5.0 WNW 28 39 15 21 1012.2 1012.1 0.0
03/01:30pm 14.8 8.0 3.0 45 5.3 WNW 28 43 15 23 1012.0 1011.9 0.0
03/01:00pm 14.9 8.5 3.4 46 5.2 W 26 39 14 21 1012.1 1012.0 0.0
03/12:30pm 14.8 7.9 4.5 50 4.8 WNW 30 44 16 24 1012.1 1012.0 0.0
03/12:00pm 14.3 7.7 4.0 50 4.7 WNW 28 39 15 21 1012.3 1012.2 0.0
03/11:30am 14.3 8.0 3.5 48 4.9 WNW 26 39 14 21 1012.3 1012.2 0.0
03/11:00am 13.9 8.8 4.2 52 4.5 WNW 20 33 11 18 1012.7 1012.6 0.0
03/10:30am 13.6 8.0 3.4 50 4.6 WNW 22 33 12 18 1013.0 1012.9 0.0
03/10:00am 13.3 8.7 3.7 52 4.3 WNW 17 26 9 14 1013.3 1013.2 0.0
03/09:30am 12.9 6.9 3.3 52 4.3 W 24 35 13 19 1013.2 1013.1 0.0
03/09:00am 12.5 7.5 3.7 55 4.0 WNW 19 28 10 15 1013.3 1013.2 0.0
03/08:30am 12.2 6.7 3.9 57 3.7 WNW 22 32 12 17 1013.1 1013.0 0.0
03/08:00am 11.8 6.1 3.1 55 3.8 WNW 22 32 12 17 1012.8 1012.7 0.0
03/07:30am 11.5 6.3 3.5 58 3.5 WNW 20 28 11 15 1012.3 1012.2 0.0
03/07:00am 11.3 6.1 3.3 58 3.5 WNW 20 32 11 17 1012.0 1011.9 0.0
03/06:30am 11.4 5.5 3.7 59 3.4 WNW 24 39 13 21 1011.6 1011.5 0.0
03/06:00am 11.4 5.0 3.4 58 3.5 WNW 26 43 14 23 1011.0 1011.0 0.0
03/05:58am 11.3 4.5 3.1 57 3.6 WNW 28 46 15 25 1010.9 1010.9 0.0
03/05:30am 11.4 4.6 2.9 56 3.7 WNW 28 44 15 24 1010.6 1010.6 0.0
03/05:10am 11.4 3.9 3.2 57 3.6 WNW 32 50 17 27 1010.5 1010.5 0.0
03/05:00am 11.4 3.6 2.9 56 3.7 W 33 48 18 26 1010.5 1010.5 0.0
03/04:41am 11.4 3.7 3.2 57 3.6 W 33 54 18 29 1010.5 1010.5 0.0
03/04:30am 11.4 4.2 2.9 56 3.7 W 30 46 16 25 1010.5 1010.5 0.0
03/04:10am 11.3 3.7 2.6 55 3.8 W 32 50 17 27 1010.4 1010.4 0.0
03/04:00am 11.2 3.0 2.5 55 3.8 W 35 50 19 27 1010.3 1010.3 0.0
03/03:30am 11.0 4.1 2.3 55 3.7 W 28 46 15 25 1010.9 1010.9 0.0
03/03:29am 11.0 4.1 2.6 56 3.6 W 28 46 15 25 1010.9 1010.9 0.0
03/03:00am 10.9 4.7 2.0 54 3.8 W 24 39 13 21 1011.7 1011.6 0.0
03/02:30am 10.7 4.6 2.5 57 3.5 W 24 39 13 21 1012.4 1012.3 0.0
03/02:00am 10.6 3.6 2.2 56 3.6 W 28 41 15 22 1013.0 1012.9 0.0
03/01:30am 10.7 3.8 2.5 57 3.5 W 28 44 15 24 1012.9 1012.8 0.0
03/01:00am 10.6 4.1 2.4 57 3.5 W 26 33 14 18 1013.1 1013.0 0.0
03/12:30am 10.2 4.3 1.8 56 3.5 WNW 22 30 12 16 1013.2 1013.1 0.0
03/12:00am 10.6 5.7 2.2 56 3.6 WNW 17 26 9 14 1013.2 1013.1 0.0
 
Date/Time
EST
Temp
°C
App
Temp
°C
Dew
Point
Rel
Hum
%
Delta-T
°C
Wind Press
QNH
hPa
Press
MSL
hPa
Rain
since 9 am
mm
Dir
 
Spd
km/h
Gust
km/h
Spd
kts
Gust
kts
02/11:30pm 10.9 5.6 2.0 54 3.8 WNW 19 26 10 14 1013.5 1013.4 0.0
02/11:00pm 11.1 7.0 2.2 54 3.8 W 13 24 7 13 1013.6 1013.6 0.0
02/10:30pm 11.4 6.3 2.9 56 3.7 WSW 19 28 10 15 1013.9 1013.9 0.0
02/10:00pm 12.1 6.9 3.3 55 3.9 W 20 30 11 16 1013.6 1013.6 0.0
02/09:30pm 12.6 8.6 3.0 52 4.3 WSW 13 22 7 12 1013.2 1013.1 0.0
02/09:00pm 13.2 8.3 4.9 57 3.9 WNW 20 35 11 19 1013.2 1013.1 0.0
02/08:30pm 13.3 9.2 4.2 54 4.2 WNW 15 22 8 12 1013.2 1013.1 0.0
02/08:00pm 13.9 10.0 5.3 56 4.0 WSW 15 26 8 14 1012.8 1012.7 0.0
02/07:30pm 14.4 8.4 7.2 62 3.5 WNW 28 41 15 22 1011.7 1011.6 0.0
02/07:00pm 15.1 8.5 7.9 62 3.6 W 32 48 17 26 1011.4 1011.3 0.0
02/06:30pm 15.7 9.1 8.7 63 3.6 WNW 33 48 18 26 1010.4 1010.4 0.0
02/06:00pm 16.2 9.7 8.2 59 4.1 WNW 32 50 17 27 1009.8 1009.8 0.0
02/05:53pm 16.5 10.7 8.0 57 4.3 WNW 28 48 15 26 1009.9 1009.9 0.0
02/05:30pm 16.9 11.2 8.3 57 4.4 WNW 28 43 15 23 1010.0 1010.0 0.0
02/05:00pm 17.9 12.6 8.5 54 4.9 WNW 26 43 14 23 1008.9 1008.9 0.0
02/04:30pm 18.7 12.0 7.5 48 5.7 WNW 32 50 17 27 1008.5 1008.5 0.0
02/04:28pm 18.7 12.4 7.5 48 5.7 WNW 30 50 16 27 1008.5 1008.5 0.0

Other Formats:

Comma delimited format used in spreadsheet applications
http://www.bom.gov.au/fwo/IDN60801/IDN60801.95940.axf

JavaScript Object Notation format (JSON) in row-major order
http://www.bom.gov.au/fwo/IDN60801/IDN60801.95940.json